Time;durP1;ratioP1;P1;durP2;ratioP2;P2;SDS_P1;SDS_P2;PMS_P1;PMS_P2;Temp;Humidity;BMP_temperature;BMP_pressure;BME280_temperature;BME280_humidity;BME280_pressure;Samples;Min_cycle;Max_cycle;Signal;HPM_P1;HPM_P2
2021/10/16 00:00:20;;;;;;;3.20;2.33;;;4.10;99.90;3.40;96934.00;;;;4987138;28;20456;-67
2021/10/16 00:03:10;;;;;;;3.13;1.73;;;4.00;99.90;3.00;96930.00;;;;4986738;28;20429;-68
2021/10/16 00:05:59;;;;;;;1.90;1.80;;;3.90;99.90;3.00;96933.00;;;;4977493;28;20436;-68
2021/10/16 00:08:48;;;;;;;3.57;1.80;;;3.80;99.90;3.20;96933.00;;;;4986608;28;20473;-68
2021/10/16 00:11:37;;;;;;;2.60;1.90;;;3.80;99.90;3.30;96940.00;;;;4991976;28;20449;-68
2021/10/16 00:14:26;;;;;;;2.00;1.90;;;3.90;99.90;3.50;96941.00;;;;4992837;28;20421;-68
2021/10/16 00:17:15;;;;;;;2.47;2.20;;;4.00;99.90;3.40;96946.00;;;;4975605;28;20433;-68
2021/10/16 00:20:07;;;;;;;3.17;2.40;;;3.90;99.90;3.20;96938.00;;;;4986846;28;20435;-68
2021/10/16 00:22:56;;;;;;;4.20;2.10;;;3.90;99.90;2.90;96939.00;;;;4986719;28;20430;-68
2021/10/16 00:25:45;;;;;;;2.97;2.23;;;3.80;99.90;3.10;96943.00;;;;4987012;28;20430;-67
2021/10/16 00:28:34;;;;;;;6.13;2.00;;;3.70;99.90;3.10;96937.00;;;;4985746;28;20477;-68
2021/10/16 00:31:23;;;;;;;3.93;2.00;;;3.70;99.90;3.20;96944.00;;;;4995258;28;20828;-68
2021/10/16 00:34:12;;;;;;;2.47;2.00;;;3.70;99.90;3.30;96956.00;;;;4985133;28;20433;-69
2021/10/16 00:37:02;;;;;;;3.77;2.07;;;3.70;99.90;3.30;96948.00;;;;4983639;28;20432;-68
2021/10/16 00:39:51;;;;;;;3.40;2.53;;;3.80;99.90;3.60;96956.00;;;;4990334;28;20429;-68
2021/10/16 00:42:45;;;;;;;5.47;2.50;;;3.90;99.90;3.60;96954.00;;;;4988687;28;20465;-68
2021/10/16 00:45:34;;;;;;;2.67;2.43;;;3.90;99.90;3.40;96961.00;;;;4990271;28;20441;-68
2021/10/16 00:48:23;;;;;;;3.63;1.93;;;3.90;99.90;3.10;96951.00;;;;4989166;28;20473;-67
2021/10/16 00:51:13;;;;;;;2.50;2.30;;;3.90;99.90;2.80;96949.00;;;;4989879;28;20859;-68
2021/10/16 00:54:07;;;;;;;3.83;2.70;;;3.70;99.90;2.80;96944.00;;;;4989000;28;20433;-66
2021/10/16 00:57:00;;;;;;;3.00;2.10;;;3.60;99.90;2.90;96952.00;;;;4989732;28;20815;-68
2021/10/16 00:59:49;;;;;;;2.53;2.33;;;3.50;99.90;2.80;96950.00;;;;4990983;28;20425;-67
2021/10/16 01:02:38;;;;;;;2.63;2.33;;;3.50;99.90;2.90;96943.00;;;;4990482;28;20449;-69
2021/10/16 01:05:27;;;;;;;3.10;2.00;;;3.50;99.90;3.00;96960.00;;;;4988213;28;20516;-69
2021/10/16 01:08:16;;;;;;;2.33;1.80;;;3.50;99.90;2.70;96940.00;;;;4988703;28;20426;-69
2021/10/16 01:11:07;;;;;;;1.93;1.77;;;3.50;99.90;2.70;96941.00;;;;4987911;28;20867;-68
2021/10/16 01:13:56;;;;;;;2.60;2.37;;;3.40;99.90;3.10;96942.00;;;;4998394;28;20938;-68
2021/10/16 01:16:49;;;;;;;2.60;1.83;;;3.40;99.90;3.10;96946.00;;;;4990010;28;20440;-68
2021/10/16 01:19:42;;;;;;;2.70;2.47;;;3.50;99.90;3.00;96945.00;;;;4988344;28;20438;-68
2021/10/16 01:22:34;;;;;;;2.43;2.20;;;3.50;99.90;2.90;96941.00;;;;4989827;28;20446;-67
2021/10/16 01:25:25;;;;;;;3.30;1.60;;;3.50;99.90;2.50;96947.00;;;;4985164;28;20461;-68
2021/10/16 01:28:16;;;;;;;1.63;1.53;;;3.40;99.90;2.40;96949.00;;;;4989539;28;20975;-67
2021/10/16 01:31:05;;;;;;;2.47;1.67;;;3.30;99.90;2.50;96957.00;;;;4997171;28;20452;-68
2021/10/16 01:33:54;;;;;;;2.70;1.80;;;3.30;99.90;2.80;96950.00;;;;4989402;28;20488;-68
2021/10/16 01:36:45;;;;;;;1.60;1.50;;;3.30;99.90;2.70;96945.00;;;;4990176;28;20453;-68
2021/10/16 01:39:35;;;;;;;2.47;2.00;;;3.30;99.90;2.70;96947.00;;;;4989196;28;20422;-67
2021/10/16 01:42:24;;;;;;;2.40;1.83;;;3.40;99.90;2.70;96939.00;;;;4986592;28;20468;-67
2021/10/16 01:45:17;;;;;;;2.90;1.83;;;3.40;99.90;2.40;96936.00;;;;4988824;28;20430;-68
2021/10/16 01:48:06;;;;;;;3.33;1.70;;;3.30;99.90;2.60;96937.00;;;;4989246;28;20430;-67
2021/10/16 01:50:56;;;;;;;2.17;1.97;;;3.30;99.90;2.80;96939.00;;;;4989185;28;20458;-68
2021/10/16 01:53:45;;;;;;;1.50;1.40;;;3.30;99.90;2.50;96942.00;;;;4988494;28;20444;-68
2021/10/16 01:56:36;;;;;;;2.47;2.03;;;3.30;99.90;2.80;96945.00;;;;4989132;28;20799;-68
2021/10/16 01:59:27;;;;;;;1.87;1.73;;;3.30;99.90;2.80;96942.00;;;;4988634;28;20426;-67
2021/10/16 02:02:31;;;;;;;2.07;1.80;;;3.30;99.90;3.10;96954.00;;;;4987561;28;20969;-68
2021/10/16 02:05:21;;;;;;;3.47;1.90;;;3.50;99.90;3.10;96953.00;;;;4988104;28;20449;-67
2021/10/16 02:08:10;;;;;;;2.00;1.67;;;3.60;99.90;3.30;96958.00;;;;4983599;28;20426;-67
2021/10/16 02:10:59;;;;;;;1.73;1.60;;;3.60;99.90;3.10;96947.00;;;;4987925;28;20517;-67
2021/10/16 02:13:49;;;;;;;1.97;1.47;;;3.70;99.90;2.90;96958.00;;;;4992169;28;20439;-69
2021/10/16 02:16:38;;;;;;;2.50;1.80;;;3.60;99.90;2.90;96943.00;;;;4990943;28;20674;-68
2021/10/16 02:19:27;;;;;;;2.53;1.53;;;3.60;99.90;2.80;96949.00;;;;4988583;28;20422;-69
2021/10/16 02:22:16;;;;;;;3.23;2.30;;;3.50;99.90;2.70;96939.00;;;;4987613;28;20450;-68
2021/10/16 02:25:06;;;;;;;2.23;1.60;;;4.00;99.90;3.00;96946.00;;;;4982871;28;20442;-66
2021/10/16 02:27:55;;;;;;;2.20;2.00;;;3.40;99.90;3.10;96950.00;;;;4986506;28;20826;-68
2021/10/16 02:30:45;;;;;;;1.87;1.77;;;3.50;99.90;3.10;96947.00;;;;4986208;28;20470;-67
2021/10/16 02:33:34;;;;;;;2.73;1.83;;;3.50;99.90;3.20;96949.00;;;;4977637;28;20430;-68
2021/10/16 02:36:23;;;;;;;2.13;1.70;;;3.60;99.90;3.30;96954.00;;;;4988290;28;20426;-68
2021/10/16 02:39:12;;;;;;;2.10;1.67;;;3.70;99.90;3.30;96949.00;;;;4988131;28;20423;-69
2021/10/16 02:42:01;;;;;;;1.97;1.80;;;3.80;99.90;3.50;96954.00;;;;4987352;28;20473;-68
2021/10/16 02:44:50;;;;;;;2.27;2.07;;;3.80;99.90;3.60;96961.00;;;;4988138;28;20442;-68
2021/10/16 02:47:40;;;;;;;2.17;1.97;;;3.90;99.90;3.50;96960.00;;;;4987993;28;20434;-69
2021/10/16 02:50:29;;;;;;;2.20;1.97;;;3.90;99.90;3.50;96962.00;;;;4985979;28;20478;-68
2021/10/16 02:53:18;;;;;;;2.63;2.00;;;3.90;99.90;3.70;96954.00;;;;4985811;28;20426;-68
2021/10/16 02:56:07;;;;;;;2.63;1.90;;;4.00;99.90;3.80;96959.00;;;;4987985;28;20462;-67
2021/10/16 02:58:56;;;;;;;1.90;1.30;;;4.10;99.90;3.80;96959.00;;;;4986717;28;20827;-68
2021/10/16 03:01:45;;;;;;;4.80;2.03;;;4.20;99.90;3.90;96963.00;;;;4988486;28;20454;-66
2021/10/16 03:04:35;;;;;;;1.90;1.73;;;4.20;99.90;3.90;96958.00;;;;4977470;28;20430;-68
2021/10/16 03:07:24;;;;;;;2.60;1.97;;;4.30;99.90;3.90;96956.00;;;;4975297;28;20841;-68
2021/10/16 03:10:12;;;;;;;1.93;1.83;;;4.30;99.90;3.70;96957.00;;;;4986867;28;20844;-68
2021/10/16 03:13:01;;;;;;;1.90;1.63;;;4.30;99.90;3.40;96955.00;;;;4968699;28;20422;-67
2021/10/16 03:15:50;;;;;;;2.43;1.60;;;3.70;99.90;3.60;96948.00;;;;4975297;28;20431;-66
2021/10/16 03:18:39;;;;;;;2.23;2.00;;;4.10;99.90;3.70;96957.00;;;;4968673;28;20477;-68
2021/10/16 03:21:29;;;;;;;3.20;2.10;;;4.20;99.90;3.90;96947.00;;;;4972721;28;21049;-68
2021/10/16 03:24:18;;;;;;;1.93;1.83;;;4.20;99.90;3.80;96955.00;;;;4986957;28;20426;-67
2021/10/16 03:27:08;;;;;;;2.33;2.13;;;4.20;99.90;3.90;96963.00;;;;4986874;28;20952;-68
2021/10/16 03:29:56;;;;;;;1.70;1.60;;;4.30;99.90;4.00;96958.00;;;;4973603;28;20480;-67
2021/10/16 03:32:45;;;;;;;2.03;1.83;;;4.30;99.90;4.20;96957.00;;;;4987417;28;20434;-68
2021/10/16 03:35:35;;;;;;;2.17;1.97;;;4.40;99.90;4.40;96956.00;;;;4987652;28;20422;-68
2021/10/16 03:38:26;;;;;;;4.30;2.03;;;4.50;99.90;4.50;96954.00;;;;4985869;28;20494;-67
2021/10/16 03:41:15;;;;;;;1.63;1.43;;;4.60;99.90;4.60;96958.00;;;;4974059;28;20446;-68
2021/10/16 03:44:05;;;;;;;2.97;1.90;;;4.70;99.90;4.70;96958.00;;;;4987222;28;20468;-68
2021/10/16 03:46:54;;;;;;;1.40;1.20;;;4.80;99.90;4.60;96953.00;;;;4986968;28;20207;-68
2021/10/16 03:49:42;;;;;;;3.30;1.80;;;4.80;99.90;4.50;96952.00;;;;4985273;28;20475;-69
2021/10/16 03:52:31;;;;;;;2.10;1.90;;;4.80;99.90;4.50;96955.00;;;;4987653;28;20450;-67
2021/10/16 03:55:21;;;;;;;6.83;1.83;;;4.90;99.90;4.40;96962.00;;;;4987329;28;20206;-67
2021/10/16 03:58:10;;;;;;;3.20;2.47;;;4.80;99.90;4.30;96952.00;;;;4985975;28;20441;-68
2021/10/16 04:01:01;;;;;;;1.93;1.83;;;4.80;99.90;4.30;96948.00;;;;4975444;28;20728;-68
2021/10/16 04:03:50;;;;;;;2.43;2.23;;;4.80;99.90;4.30;96956.00;;;;4986256;28;20206;-67
2021/10/16 04:06:39;;;;;;;1.80;1.70;;;4.70;99.90;4.30;96961.00;;;;4986539;28;20203;-68
2021/10/16 04:09:28;;;;;;;1.97;1.37;;;4.70;99.90;4.20;96962.00;;;;4986875;28;20434;-67
2021/10/16 04:12:18;;;;;;;1.57;1.47;;;4.70;99.90;4.20;96957.00;;;;4982989;28;20222;-68
2021/10/16 04:15:08;;;;;;;2.77;1.30;;;4.70;99.90;4.20;96941.00;;;;4991913;28;20444;-69
2021/10/16 04:17:57;;;;;;;2.07;1.90;;;4.60;99.90;4.30;96960.00;;;;4986545;28;20209;-68
2021/10/16 04:20:46;;;;;;;1.93;1.40;;;4.70;99.90;4.50;96949.00;;;;4986540;28;20445;-68
2021/10/16 04:23:35;;;;;;;1.73;1.63;;;4.70;99.90;4.60;96953.00;;;;4987237;28;20430;-68
2021/10/16 04:26:24;;;;;;;1.97;1.67;;;4.80;99.90;4.50;96965.00;;;;4975770;28;20850;-68
2021/10/16 04:29:15;;;;;;;4.10;1.90;;;4.80;99.90;4.60;96972.00;;;;4986784;28;20202;-68
2021/10/16 04:32:04;;;;;;;3.07;1.60;;;7.20;99.90;4.80;96973.00;;;;4976453;28;20608;-68
2021/10/16 04:34:53;;;;;;;1.70;1.60;;;5.00;99.90;4.80;96977.00;;;;4986887;28;20198;-68
2021/10/16 04:37:42;;;;;;;2.33;1.80;;;5.00;99.90;4.80;96972.00;;;;4984242;28;20207;-68
2021/10/16 04:40:31;;;;;;;2.00;1.50;;;5.10;99.90;4.70;96974.00;;;;4986120;28;20198;-67
2021/10/16 04:43:20;;;;;;;2.10;1.57;;;5.00;99.90;4.60;96964.00;;;;4976471;28;21078;-68
2021/10/16 04:46:12;;;;;;;2.37;2.17;;;5.00;99.90;4.50;96965.00;;;;4985555;28;20671;-68
2021/10/16 04:49:04;;;;;;;2.20;2.00;;;5.00;99.90;4.60;96974.00;;;;4982858;28;20214;-68
2021/10/16 04:51:53;;;;;;;2.00;1.80;;;5.00;99.90;4.60;96977.00;;;;4986488;28;20231;-67
2021/10/16 04:54:42;;;;;;;3.37;1.60;;;5.00;99.90;4.50;96977.00;;;;4986346;28;20238;-68
2021/10/16 04:57:31;;;;;;;2.63;1.87;;;5.00;99.90;4.60;96968.00;;;;4985701;28;20214;-68
2021/10/16 05:00:20;;;;;;;4.70;2.03;;;5.00;99.90;4.50;96973.00;;;;4986590;28;20213;-69
2021/10/16 05:03:10;;;;;;;2.17;1.63;;;4.90;99.90;4.40;96982.00;;;;4986684;28;20214;-68
2021/10/16 05:05:59;;;;;;;2.90;1.80;;;4.90;99.90;4.50;96985.00;;;;4980244;28;20202;-69
2021/10/16 05:08:48;;;;;;;2.03;1.90;;;4.90;99.90;4.60;96993.00;;;;4985957;28;20207;-68
2021/10/16 05:11:37;;;;;;;3.13;2.07;;;4.90;99.90;4.60;96989.00;;;;4985699;28;20234;-68
2021/10/16 05:14:25;;;;;;;3.90;1.90;;;4.90;99.90;4.70;96985.00;;;;4997429;28;20202;-68
2021/10/16 05:17:14;;;;;;;2.07;1.83;;;5.00;99.90;4.70;96993.00;;;;4977940;28;20213;-68
2021/10/16 05:20:07;;;;;;;5.10;1.77;;;5.00;99.90;4.90;96982.00;;;;4989750;28;20209;-68
2021/10/16 05:22:56;;;;;;;3.33;2.03;;;5.10;99.90;5.10;96990.00;;;;4989538;28;20285;-68
2021/10/16 05:25:46;;;;;;;2.20;1.73;;;5.20;99.90;4.90;97001.00;;;;4990116;28;20217;-68
2021/10/16 05:28:35;;;;;;;1.80;1.70;;;5.30;99.90;4.90;97003.00;;;;4989986;28;20202;-69
2021/10/16 05:31:24;;;;;;;2.83;1.63;;;5.30;99.90;5.00;97004.00;;;;4988683;28;20508;-69
2021/10/16 05:34:13;;;;;;;1.97;1.43;;;5.30;99.90;4.90;97005.00;;;;4990353;28;20239;-69
2021/10/16 05:37:04;;;;;;;3.60;1.70;;;5.40;99.90;5.00;97007.00;;;;4988115;28;20211;-69
2021/10/16 05:39:53;;;;;;;8.40;5.20;;;5.40;99.90;4.90;97020.00;;;;4976637;28;20210;-69
2021/10/16 05:42:42;;;;;;;5.73;3.30;;;5.40;99.90;4.80;97013.00;;;;4989534;28;20222;-67
2021/10/16 05:45:31;;;;;;;3.63;2.70;;;5.40;99.90;4.70;97014.00;;;;4988811;28;20210;-68
2021/10/16 05:48:20;;;;;;;3.87;1.33;;;5.30;99.90;4.70;97017.00;;;;4987763;28;20210;-68
2021/10/16 05:51:11;;;;;;;2.00;1.77;;;5.30;99.90;4.80;97022.00;;;;4976329;28;20241;-68
2021/10/16 05:54:01;;;;;;;3.17;1.73;;;5.30;99.90;4.80;97022.00;;;;4987226;28;20681;-68
2021/10/16 05:56:50;;;;;;;2.03;1.80;;;5.30;99.90;4.70;97033.00;;;;4987957;28;20206;-68
2021/10/16 05:59:39;;;;;;;2.50;1.80;;;5.20;99.90;4.80;97031.00;;;;4989966;28;20211;-68
2021/10/16 06:02:29;;;;;;;1.40;1.30;;;5.20;99.90;4.90;97041.00;;;;4988913;28;20226;-68
2021/10/16 06:05:18;;;;;;;2.67;1.73;;;5.20;99.90;4.90;97040.00;;;;4989186;28;20210;-68
2021/10/16 06:08:06;;;;;;;4.60;1.90;;;5.30;99.90;5.10;97049.00;;;;4988831;28;20209;-68
2021/10/16 06:10:57;;;;;;;2.17;1.47;;;5.30;99.90;5.20;97049.00;;;;4976749;28;20234;-68
2021/10/16 06:13:46;;;;;;;2.37;2.17;;;5.40;99.90;5.20;97049.00;;;;4995828;28;20297;-67
2021/10/16 06:16:35;;;;;;;2.03;1.77;;;5.50;99.90;5.40;97047.00;;;;4992398;28;20210;-68
2021/10/16 06:19:23;;;;;;;2.17;1.70;;;5.60;99.90;5.30;97052.00;;;;4989349;28;20202;-67
2021/10/16 06:22:12;;;;;;;3.90;1.80;;;5.60;99.90;5.30;97059.00;;;;4987790;28;20222;-68
2021/10/16 06:25:01;;;;;;;1.67;1.43;;;5.60;99.90;5.30;97067.00;;;;4983447;28;20218;-67
2021/10/16 06:27:51;;;;;;;1.77;1.53;;;5.60;99.90;5.20;97062.00;;;;4988267;28;20686;-67
2021/10/16 06:30:40;;;;;;;2.37;1.33;;;5.70;99.90;5.40;97051.00;;;;4976704;28;20226;-67
2021/10/16 06:33:30;;;;;;;2.27;1.70;;;5.70;99.90;5.50;97051.00;;;;4985366;28;20214;-68
2021/10/16 06:36:19;;;;;;;3.27;1.90;;;5.80;99.90;5.40;97058.00;;;;4984880;28;20209;-68
2021/10/16 06:39:08;;;;;;;2.83;2.27;;;5.80;99.90;5.70;97069.00;;;;4976866;28;20215;-67
2021/10/16 06:41:57;;;;;;;2.80;2.03;;;5.80;99.90;5.60;97070.00;;;;4985234;28;20222;-68
2021/10/16 06:44:47;;;;;;;1.87;1.77;;;5.90;99.90;5.50;97069.00;;;;4988867;28;20694;-68
2021/10/16 06:47:36;;;;;;;2.00;1.70;;;6.00;99.90;5.70;97074.00;;;;4988541;28;20643;-66
2021/10/16 06:50:25;;;;;;;2.80;2.03;;;6.00;99.90;6.00;97071.00;;;;4986866;28;20213;-68
2021/10/16 06:53:14;;;;;;;3.80;1.83;;;6.10;99.90;6.10;97074.00;;;;4982586;28;20714;-68
2021/10/16 06:56:03;;;;;;;2.50;2.30;;;6.20;99.90;6.60;97081.00;;;;4982758;28;20662;-67
2021/10/16 06:58:52;;;;;;;4.47;2.03;;;6.40;99.90;6.80;97080.00;;;;4979636;28;20294;-68
2021/10/16 07:01:42;;;;;;;5.23;2.90;;;6.50;99.90;7.10;97086.00;;;;4976293;28;20223;-67
2021/10/16 07:04:31;;;;;;;4.63;3.83;;;6.80;99.90;7.50;97089.00;;;;4981394;28;20199;-66
2021/10/16 07:07:20;;;;;;;6.97;4.23;;;7.00;99.90;7.80;97091.00;;;;4995924;28;20678;-68
2021/10/16 07:10:09;;;;;;;6.57;4.27;;;7.30;99.90;8.20;97079.00;;;;4985287;28;20206;-68
2021/10/16 07:13:01;;;;;;;5.63;3.77;;;7.60;99.90;8.50;97092.00;;;;4972493;28;20578;-68
2021/10/16 07:15:50;;;;;;;6.80;3.97;;;7.90;99.90;8.70;97088.00;;;;4969206;28;20686;-68
2021/10/16 07:18:40;;;;;;;7.07;4.40;;;8.20;99.90;8.90;97097.00;;;;4974029;28;20203;-67
2021/10/16 07:21:29;;;;;;;4.63;3.70;;;8.40;99.90;8.90;97105.00;;;;4974127;28;20223;-67
2021/10/16 07:24:20;;;;;;;6.00;4.70;;;8.50;99.90;9.00;97102.00;;;;4973520;28;20211;-68
2021/10/16 07:27:09;;;;;;;5.87;4.47;;;8.70;99.90;8.90;97094.00;;;;4969816;28;20266;-67
2021/10/16 07:29:58;;;;;;;10.20;5.13;;;8.80;99.90;9.10;97104.00;;;;4974563;28;20206;-68
2021/10/16 07:32:48;;;;;;;10.40;5.10;;;8.90;99.90;9.30;97102.00;;;;4985691;28;20246;-68
2021/10/16 07:35:38;;;;;;;12.37;7.93;;;9.00;99.90;9.30;97108.00;;;;4971548;28;20214;-67
2021/10/16 07:38:27;;;;;;;10.77;6.57;;;9.10;99.90;9.40;97112.00;;;;4986033;28;20206;-68
2021/10/16 07:41:16;;;;;;;6.03;4.80;;;9.10;99.90;9.30;97114.00;;;;4980035;28;20243;-68
2021/10/16 07:44:07;;;;;;;5.03;3.77;;;9.20;99.90;9.40;97121.00;;;;4979595;28;20591;-68
2021/10/16 07:46:55;;;;;;;10.60;4.33;;;9.20;99.90;9.50;97120.00;;;;4978915;28;20674;-68
2021/10/16 07:49:44;;;;;;;7.57;4.83;;;9.30;99.90;9.70;97118.00;;;;4990229;28;20211;-68
2021/10/16 07:52:35;;;;;;;7.47;3.93;;;9.40;99.90;10.20;97108.00;;;;4970029;28;20246;-67
2021/10/16 07:55:24;;;;;;;6.17;4.13;;;9.60;99.90;10.60;97118.00;;;;4977746;28;20236;-67
2021/10/16 07:58:12;;;;;;;5.37;3.60;;;9.80;99.90;10.70;97123.00;;;;4979100;28;20203;-67
2021/10/16 08:01:05;;;;;;;6.53;4.23;;;10.00;99.90;10.40;97120.00;;;;4982407;28;20660;-67
2021/10/16 08:03:57;;;;;;;5.60;3.40;;;10.20;99.90;10.50;97118.00;;;;4980376;28;20290;-67
2021/10/16 08:06:46;;;;;;;5.40;3.40;;;10.30;99.90;10.40;97117.00;;;;4995910;28;20719;-68
2021/10/16 08:09:36;;;;;;;4.13;3.20;;;10.30;99.90;10.30;97124.00;;;;4975934;28;20194;-67
2021/10/16 08:12:25;;;;;;;9.00;3.77;;;10.30;99.90;10.50;97123.00;;;;4993724;28;20540;-67
2021/10/16 08:15:15;;;;;;;5.67;3.97;;;10.30;99.90;10.10;97136.00;;;;4984978;28;20240;-68
2021/10/16 08:18:04;;;;;;;5.97;3.60;;;10.30;99.90;10.00;97124.00;;;;4984517;28;20584;-67
2021/10/16 08:20:53;;;;;;;7.20;4.27;;;10.30;99.90;10.20;97133.00;;;;4987110;28;20226;-68
2021/10/16 08:23:42;;;;;;;8.60;4.60;;;10.30;99.90;10.40;97133.00;;;;4974365;28;20210;-67
2021/10/16 08:26:49;;;;;;;8.17;4.50;;;11.10;99.90;10.30;97130.00;;;;5121209;27;20287;-64
2021/10/16 08:29:38;;;;;;;5.37;4.07;;;10.30;99.90;10.50;97139.00;;;;5082970;28;20573;-65
2021/10/16 08:32:26;;;;;;;6.57;3.17;;;10.30;99.90;10.80;97152.00;;;;5099302;28;20227;-65
2021/10/16 08:35:16;;;;;;;5.93;3.60;;;10.30;99.90;10.90;97146.00;;;;5102837;28;20205;-66
2021/10/16 08:38:07;;;;;;;8.40;3.90;;;10.50;99.90;11.00;97152.00;;;;5094719;28;20198;-65
2021/10/16 08:40:56;;;;;;;4.17;3.60;;;10.60;99.90;11.10;97151.00;;;;5099375;28;20222;-65
2021/10/16 08:43:46;;;;;;;6.63;3.70;;;10.70;99.90;11.20;97144.00;;;;5098552;28;20209;-66
2021/10/16 08:46:44;;;;;;;7.37;4.53;;;10.80;99.90;11.30;97146.00;;;;5090875;28;20255;-65
2021/10/16 08:49:34;;;;;;;4.00;3.60;;;10.90;99.90;11.50;97148.00;;;;5100809;28;20203;-67
2021/10/16 08:52:23;;;;;;;5.90;3.20;;;11.00;99.90;11.70;97155.00;;;;5091141;28;20252;-65
2021/10/16 08:55:15;;;;;;;4.53;3.07;;;11.10;99.90;11.70;97151.00;;;;5095095;28;20207;-67
2021/10/16 08:58:06;;;;;;;5.37;3.67;;;11.30;99.90;11.70;97164.00;;;;5109456;27;20668;-65
2021/10/16 09:00:56;;;;;;;4.40;4.00;;;11.30;99.90;11.70;97155.00;;;;5116060;27;20598;-64
2021/10/16 09:03:47;;;;;;;7.90;4.77;;;11.40;99.90;11.70;97161.00;;;;5108502;27;20198;-67
2021/10/16 09:06:41;;;;;;;5.27;3.00;;;11.40;99.90;11.80;97151.00;;;;5112390;27;20228;-67
2021/10/16 09:09:32;;;;;;;7.37;4.00;;;11.50;99.90;11.90;97150.00;;;;5111914;27;20401;-67
2021/10/16 09:12:21;;;;;;;5.17;3.47;;;11.50;99.90;11.90;97158.00;;;;5103735;27;20215;-67
2021/10/16 09:15:22;;;;;;;7.33;4.30;;;11.50;99.90;12.00;97155.00;;;;5110555;27;20677;-67
2021/10/16 09:18:12;;;;;;;4.33;3.30;;;11.60;99.90;12.20;97144.00;;;;5116177;27;20209;-66
2021/10/16 09:21:01;;;;;;;7.10;3.83;;;11.70;99.90;12.30;97146.00;;;;5120125;27;20222;-67
2021/10/16 09:24:09;;;;;;;4.33;3.10;;;11.70;99.90;12.40;97156.00;;;;5114295;27;20803;-66
2021/10/16 09:27:01;;;;;;;4.97;3.20;;;11.80;99.90;12.50;97152.00;;;;5104822;27;20230;-66
2021/10/16 09:29:53;;;;;;;3.97;2.93;;;12.00;99.90;12.60;97148.00;;;;5110762;27;20198;-65
2021/10/16 09:32:55;;;;;;;4.23;3.13;;;12.00;99.90;12.80;97152.00;;;;5124797;27;20225;-65
2021/10/16 09:35:47;;;;;;;5.77;3.30;;;12.20;99.90;12.90;97163.00;;;;5109683;27;20198;-65
2021/10/16 09:38:45;;;;;;;5.17;2.73;;;12.30;99.90;12.90;97155.00;;;;5097772;28;20211;-65
2021/10/16 09:41:37;;;;;;;4.27;3.17;;;12.40;99.90;13.50;97159.00;;;;5103882;28;20222;-68
2021/10/16 09:44:29;;;;;;;5.07;2.97;;;12.60;99.90;13.70;97161.00;;;;5104079;28;20209;-66
2021/10/16 09:47:19;;;;;;;4.03;3.10;;;12.80;99.90;13.90;97149.00;;;;5104039;28;20700;-65
2021/10/16 09:50:11;;;;;;;5.23;3.00;;;13.10;99.90;14.40;97165.00;;;;5093345;28;20664;-65
2021/10/16 09:53:01;;;;;;;4.70;2.80;;;13.30;99.90;14.70;97162.00;;;;5091285;28;20202;-64
2021/10/16 09:55:50;;;;;;;4.07;2.93;;;13.70;99.90;14.70;97162.00;;;;5093297;28;20203;-65
2021/10/16 09:58:41;;;;;;;4.83;3.00;;;13.90;99.90;14.90;97170.00;;;;5099624;28;20206;-65
2021/10/16 10:01:30;;;;;;;4.50;3.13;;;14.10;99.90;15.10;97169.00;;;;5092905;28;20250;-65
2021/10/16 10:04:23;;;;;;;2.57;2.30;;;14.20;99.90;15.20;97164.00;;;;5097936;28;20202;-66
2021/10/16 10:07:12;;;;;;;3.97;2.30;;;14.40;99.90;14.90;97164.00;;;;5102672;28;20226;-65
2021/10/16 10:10:03;;;;;;;4.00;2.97;;;14.50;99.90;14.70;97167.00;;;;5099839;28;20640;-65
2021/10/16 10:12:53;;;;;;;3.73;2.50;;;14.50;99.90;14.60;97153.00;;;;5102633;28;20513;-65
2021/10/16 10:15:42;;;;;;;3.70;2.67;;;14.50;99.90;15.10;97114.00;;;;5102709;28;20277;-67
2021/10/16 10:21:42;;;;;;;2.90;2.23;;;15.10;99.90;16.70;97139.00;;;;5101974;28;20229;-67
2021/10/16 10:24:39;;;;;;;2.43;2.03;;;15.50;99.90;17.40;97138.00;;;;5097681;28;20202;-67
2021/10/16 10:27:44;;;;;;;2.27;1.63;;;15.90;99.90;17.20;97145.00;;;;5095197;28;20218;-67
2021/10/16 10:30:42;;;;;;;2.53;1.87;;;16.30;99.90;16.60;97154.00;;;;5085642;28;20214;-67
2021/10/16 10:33:31;;;;;;;2.80;1.60;;;16.30;99.90;16.40;97149.00;;;;5086336;28;20214;-67
2021/10/16 10:36:24;;;;;;;2.70;1.80;;;16.20;99.90;16.50;97150.00;;;;5093743;28;20215;-67
2021/10/16 10:39:55;;;;;;;2.23;1.80;;;16.20;99.90;16.10;97144.00;;;;5087644;28;20211;-67
2021/10/16 10:42:54;;;;;;;5.07;1.93;;;16.00;99.90;16.10;97129.00;;;;5087126;28;20215;-67
2021/10/16 10:45:43;;;;;;;5.13;1.70;;;15.90;99.90;16.00;97136.00;;;;5099448;28;20838;-66
2021/10/16 10:48:43;;;;;;;2.30;1.87;;;15.80;99.90;15.90;97139.00;;;;5085118;28;20199;-66
2021/10/16 10:51:35;;;;;;;6.57;1.87;;;15.70;99.90;15.70;97138.00;;;;5097567;28;20608;-66
2021/10/16 10:54:25;;;;;;;3.83;2.30;;;15.60;99.90;15.90;97132.00;;;;5098722;28;20200;-66
2021/10/16 10:57:14;;;;;;;4.57;2.40;;;15.50;99.90;15.80;97137.00;;;;5095629;28;20217;-66
2021/10/16 11:00:05;;;;;;;3.07;1.93;;;15.50;99.90;15.80;97132.00;;;;5106598;28;20237;-65
2021/10/16 11:02:54;;;;;;;6.00;3.20;;;15.40;99.90;15.70;97131.00;;;;5086753;28;20207;-65
2021/10/16 11:05:43;;;;;;;5.10;2.90;;;15.40;99.90;15.90;97128.00;;;;5098927;28;20982;-66
2021/10/16 11:08:31;;;;;;;5.17;3.37;;;15.40;99.90;15.90;97127.00;;;;5100447;28;20214;-67
2021/10/16 11:11:21;;;;;;;3.37;2.33;;;15.40;99.90;16.00;97121.00;;;;5064948;28;20224;-66
2021/10/16 11:14:10;;;;;;;3.33;2.27;;;15.40;99.90;17.70;97079.00;;;;5085984;28;20199;-65
2021/10/16 11:17:03;;;;;;;4.10;2.87;;;15.90;99.90;17.80;97121.00;;;;5099692;28;20566;-67
2021/10/16 11:19:54;;;;;;;3.53;2.47;;;16.50;99.90;17.40;97118.00;;;;5085426;28;20694;-66
2021/10/16 11:22:52;;;;;;;2.83;1.90;;;16.70;99.90;17.20;97100.00;;;;5091939;28;20581;-65
2021/10/16 11:25:40;;;;;;;4.97;2.40;;;16.80;99.90;17.10;97100.00;;;;5102068;28;21115;-67
2021/10/16 11:28:31;;;;;;;2.00;1.67;;;17.10;99.90;16.60;97094.00;;;;5101733;28;20199;-67
2021/10/16 11:31:23;;;;;;;2.07;1.87;;;16.90;99.90;16.40;97080.00;;;;5100501;28;20215;-67
2021/10/16 11:34:13;;;;;;;2.13;1.77;;;16.80;99.90;17.30;97046.00;;;;5071386;28;20260;-67
2021/10/16 11:37:02;;;;;;;2.87;1.60;;;16.80;99.90;17.30;97103.00;;;;5083425;28;20202;-67
2021/10/16 11:40:00;;;;;;;2.13;1.70;;;17.20;99.90;16.70;97104.00;;;;5064767;28;20208;-65
2021/10/16 11:42:52;;;;;;;2.90;1.50;;;17.00;99.90;16.90;97097.00;;;;5064912;28;20200;-66
2021/10/16 11:45:44;;;;;;;8.00;3.40;;;16.90;99.90;16.40;97102.00;;;;5065846;28;20200;-66
2021/10/16 11:48:33;;;;;;;8.53;2.90;;;16.80;99.80;16.10;97105.00;;;;5082637;28;20989;-67
2021/10/16 11:51:29;;;;;;;7.60;2.83;;;16.50;99.70;16.00;97101.00;;;;5073039;28;20219;-66
2021/10/16 11:54:18;;;;;;;4.97;2.57;;;16.20;99.90;15.90;97099.00;;;;5090169;28;20202;-66
2021/10/16 11:57:07;;;;;;;3.37;2.07;;;16.00;99.90;15.50;97100.00;;;;5088293;28;20199;-65
2021/10/16 12:00:24;;;;;;;3.20;2.17;;;15.80;99.90;15.30;97098.00;;;;5082437;28;20708;-67
2021/10/16 12:03:15;;;;;;;3.33;2.30;;;15.50;99.90;14.70;97099.00;;;;5088198;28;20214;-65
2021/10/16 12:06:08;;;;;;;5.80;4.20;;;15.20;99.90;14.60;97096.00;;;;5089784;28;20563;-66
2021/10/16 12:09:03;;;;;;;6.83;4.07;;;14.90;99.90;14.50;97087.00;;;;5085268;28;20202;-66
2021/10/16 12:12:00;;;;;;;3.03;2.13;;;14.70;99.90;14.00;97081.00;;;;5076678;28;20689;-66
2021/10/16 12:14:49;;;;;;;2.70;1.97;;;14.50;99.90;13.80;97083.00;;;;5065334;28;20598;-66
2021/10/16 12:17:44;;;;;;;4.47;2.40;;;14.20;99.90;14.00;97087.00;;;;5080863;28;20199;-65
2021/10/16 12:20:56;;;;;;;4.77;2.90;;;14.40;99.90;14.00;97074.00;;;;5071102;28;20200;-66
2021/10/16 12:23:47;;;;;;;3.63;2.07;;;14.00;99.90;13.90;97077.00;;;;5078880;28;20673;-66
2021/10/16 12:26:39;;;;;;;2.33;2.13;;;13.90;99.90;13.80;97071.00;;;;5082726;28;20235;-66
2021/10/16 12:29:30;;;;;;;2.17;1.97;;;13.80;99.90;13.90;97073.00;;;;5076851;28;20199;-66
2021/10/16 12:32:21;;;;;;;3.20;2.20;;;13.80;99.90;13.90;97079.00;;;;5085570;28;20227;-66
2021/10/16 12:35:20;;;;;;;1.77;1.67;;;13.80;99.90;13.90;97063.00;;;;5101806;28;20198;-66
2021/10/16 12:38:09;;;;;;;2.67;2.47;;;13.80;99.90;13.90;97067.00;;;;5085545;28;20574;-65
2021/10/16 12:40:58;;;;;;;2.80;2.50;;;13.80;99.90;13.90;97070.00;;;;5070215;28;20302;-66
2021/10/16 12:43:48;;;;;;;2.40;2.20;;;13.70;99.90;14.00;97072.00;;;;5097287;28;20207;-66
2021/10/16 12:46:37;;;;;;;2.47;2.10;;;13.80;99.90;13.80;97074.00;;;;5087219;28;20211;-65
2021/10/16 12:49:32;;;;;;;3.37;2.27;;;13.80;99.90;13.70;97072.00;;;;5093468;28;20692;-66
2021/10/16 12:52:27;;;;;;;1.80;1.70;;;13.70;99.90;13.90;97063.00;;;;5093652;28;20216;-65